Time;durP1;ratioP1;P1;durP2;ratioP2;P2;SDS_P1;SDS_P2;PMS_P1;PMS_P2;Temp;Humidity;BMP_temperature;BMP_pressure;BME280_temperature;BME280_humidity;BME280_pressure;Samples;Min_cycle;Max_cycle;Signal;HPM_P1;HPM_P2
2022/05/10 00:00:47;;;;;;;;;;;17.40;90.80;;;;;;4939685;29;19926;-86
2022/05/10 00:03:15;;;;;;;;;;;17.60;91.00;;;;;;4937688;29;19933;-87
2022/05/10 00:05:43;;;;;;;;;;;17.60;91.10;;;;;;4937638;29;19931;-85
2022/05/10 00:08:12;;;;;;;;;;;17.70;91.10;;;;;;4936172;29;19933;-86
2022/05/10 00:10:40;;;;;;;;;;;17.60;91.00;;;;;;4923567;29;19934;-87
2022/05/10 00:13:08;;;;;;;;;;;17.70;90.90;;;;;;4962127;28;20118;-87
2022/05/10 00:15:35;;;;;;;;;;;17.60;91.00;;;;;;4957299;28;19933;-85
2022/05/10 00:18:03;;;;;;;;;;;17.70;91.00;;;;;;4971774;28;19941;-86
2022/05/10 00:20:31;;;;;;;;;;;17.40;90.90;;;;;;4954573;28;19930;-86
2022/05/10 00:22:58;;;;;;;;;;;17.60;91.10;;;;;;4947423;29;19938;-87
2022/05/10 00:25:27;;;;;;;;;;;17.60;91.10;;;;;;4927064;28;19937;-85
2022/05/10 00:27:58;;;;;;;;;;;17.60;91.10;;;;;;4952428;28;19933;-85
2022/05/10 00:30:26;;;;;;;;;;;17.60;91.10;;;;;;4934888;29;19930;-86
2022/05/10 00:32:53;;;;;;;;;;;17.60;91.10;;;;;;4918721;29;19926;-85
2022/05/10 00:35:23;;;;;;;;;;;17.70;91.20;;;;;;4904989;29;20384;-86
2022/05/10 00:37:51;;;;;;;;;;;17.60;91.10;;;;;;4954450;28;19926;-87
2022/05/10 00:40:21;;;;;;;;;;;17.80;91.20;;;;;;4938783;28;19930;-88
2022/05/10 00:42:57;;;;;;;;;;;17.20;91.00;;;;;;4959385;28;19925;-87
2022/05/10 00:45:29;;;;;;;;;;;17.60;91.10;;;;;;4963736;28;20610;-87
2022/05/10 00:48:06;;;;;;;;;;;17.40;91.20;;;;;;4945062;28;19937;-86
2022/05/10 00:50:38;;;;;;;;;;;19.00;91.60;;;;;;4953634;28;19930;-86
2022/05/10 00:53:19;;;;;;;;;;;17.60;91.30;;;;;;4941918;29;19949;-86
2022/05/10 00:55:50;;;;;;;;;;;17.60;91.40;;;;;;4944983;28;19926;-86
2022/05/10 00:58:37;;;;;;;;;;;16.30;91.20;;;;;;4945841;28;19937;-86
2022/05/10 01:01:05;;;;;;;;;;;17.50;91.40;;;;;;4936894;28;19926;-87
2022/05/10 01:03:37;;;;;;;;;;;17.50;91.50;;;;;;4918825;29;19930;-85
2022/05/10 01:06:21;;;;;;;;;;;17.50;91.70;;;;;;4919264;29;19930;-87
2022/05/10 01:09:01;;;;;;;;;;;17.50;91.60;;;;;;4938096;28;19930;-85
2022/05/10 01:11:30;;;;;;;;;;;17.50;91.60;;;;;;4958346;28;19936;-86
2022/05/10 01:14:01;;;;;;;;;;;17.50;91.70;;;;;;4948005;28;19937;-86
2022/05/10 01:16:29;;;;;;;;;;;17.40;91.80;;;;;;4952609;28;19930;-87
2022/05/10 01:18:56;;;;;;;;;;;17.40;91.70;;;;;;4952309;28;19936;-86
2022/05/10 01:21:40;;;;;;;;;;;17.40;91.70;;;;;;4966111;28;20101;-86
2022/05/10 01:24:21;;;;;;;;;;;17.70;91.80;;;;;;4967672;28;20227;-86
2022/05/10 01:27:24;;;;;;;;;;;17.40;91.90;;;;;;4956125;28;19930;-86
2022/05/10 01:29:57;;;;;;;;;;;17.40;91.90;;;;;;4894139;29;20368;-85
2022/05/10 01:35:19;;;;;;;;;;;17.30;92.10;;;;;;4955817;28;19930;-85
2022/05/10 01:37:50;;;;;;;;;;;17.30;92.10;;;;;;4938841;28;19938;-85
2022/05/10 01:40:38;;;;;;;;;;;17.30;92.30;;;;;;4941547;28;20115;-86
2022/05/10 01:43:12;;;;;;;;;;;17.30;92.30;;;;;;4971628;28;19930;-86
2022/05/10 01:45:45;;;;;;;;;;;17.30;92.40;;;;;;4967136;28;19937;-87
2022/05/10 01:48:16;;;;;;;;;;;17.20;92.50;;;;;;4950560;28;19926;-85
2022/05/10 01:50:47;;;;;;;;;;;16.20;92.00;;;;;;4951701;28;19930;-86
2022/05/10 01:53:19;;;;;;;;;;;17.30;92.40;;;;;;4938640;28;19926;-86
2022/05/10 01:55:51;;;;;;;;;;;17.30;92.60;;;;;;4955980;28;19933;-85
2022/05/10 01:58:25;;;;;;;;;;;17.20;92.50;;;;;;4957402;28;20416;-86
2022/05/10 02:00:55;;;;;;;;;;;17.20;92.60;;;;;;4975501;28;20278;-85
2022/05/10 02:03:25;;;;;;;;;;;17.20;92.80;;;;;;4974995;28;20112;-86
2022/05/10 02:06:08;;;;;;;;;;;17.20;92.80;;;;;;4957916;28;20340;-86
2022/05/10 02:08:59;;;;;;;;;;;17.10;93.00;;;;;;4952350;29;19937;-86
2022/05/10 02:11:33;;;;;;;;;;;17.10;93.00;;;;;;4947889;28;19945;-86
2022/05/10 02:14:13;;;;;;;;;;;17.10;93.20;;;;;;4956080;29;19934;-86
2022/05/10 02:16:56;;;;;;;;;;;17.10;93.30;;;;;;4932099;29;19938;-86
2022/05/10 02:19:43;;;;;;;;;;;17.10;93.40;;;;;;4939670;29;20409;-86
2022/05/10 02:22:14;;;;;;;;;;;17.10;93.30;;;;;;4938400;28;20408;-85
2022/05/10 02:24:48;;;;;;;;;;;17.10;93.50;;;;;;4958591;28;19933;-88
2022/05/10 02:27:22;;;;;;;;;;;17.30;93.60;;;;;;4935076;29;19926;-86
2022/05/10 02:30:03;;;;;;;;;;;17.00;93.40;;;;;;4923154;29;19927;-86
2022/05/10 02:33:07;;;;;;;;;;;17.00;93.70;;;;;;4937361;29;19935;-86
2022/05/10 02:35:57;;;;;;;;;;;17.00;93.60;;;;;;4968782;29;19930;-86
2022/05/10 02:38:30;;;;;;;;;;;17.00;93.70;;;;;;4952378;28;19934;-87
2022/05/10 02:40:59;;;;;;;;;;;17.00;93.70;;;;;;4975975;28;19926;-85
2022/05/10 02:43:31;;;;;;;;;;;16.90;93.90;;;;;;4933905;29;20378;-87
2022/05/10 02:45:59;;;;;;;;;;;16.90;93.90;;;;;;4926150;29;19941;-87
2022/05/10 02:48:37;;;;;;;;;;;16.90;94.10;;;;;;4938298;29;19934;-86
2022/05/10 02:51:05;;;;;;;;;;;16.90;94.10;;;;;;4922240;29;20413;-87
2022/05/10 02:53:33;;;;;;;;;;;16.90;94.10;;;;;;4954838;28;20358;-86
2022/05/10 02:56:01;;;;;;;;;;;16.90;94.10;;;;;;4967297;28;19933;-86
2022/05/10 02:58:35;;;;;;;;;;;16.90;94.00;;;;;;4974181;28;19957;-86
2022/05/10 03:01:22;;;;;;;;;;;16.90;94.40;;;;;;4973854;28;20445;-87
2022/05/10 03:03:50;;;;;;;;;;;16.90;94.00;;;;;;4956374;28;19930;-86
2022/05/10 03:06:20;;;;;;;;;;;16.90;94.00;;;;;;4973561;28;19933;-86
2022/05/10 03:08:50;;;;;;;;;;;16.80;94.20;;;;;;4955840;28;19930;-87
2022/05/10 03:11:17;;;;;;;;;;;16.80;94.30;;;;;;4956807;28;19926;-86
2022/05/10 03:13:47;;;;;;;;;;;16.80;94.40;;;;;;4940876;28;19926;-87
2022/05/10 03:16:20;;;;;;;;;;;16.80;94.30;;;;;;4949256;28;19937;-86
2022/05/10 03:18:48;;;;;;;;;;;16.80;94.00;;;;;;4940821;28;20416;-86
2022/05/10 03:21:16;;;;;;;;;;;16.80;94.20;;;;;;4956232;28;19926;-86
2022/05/10 03:23:43;;;;;;;;;;;16.30;93.80;;;;;;4935919;29;19934;-86
2022/05/10 03:26:12;;;;;;;;;;;16.70;93.90;;;;;;4934234;28;19930;-85
2022/05/10 03:28:40;;;;;;;;;;;16.80;93.70;;;;;;4956630;28;20344;-86
2022/05/10 03:31:08;;;;;;;;;;;16.80;93.50;;;;;;4955323;28;19926;-86
2022/05/10 03:33:35;;;;;;;;;;;16.80;93.20;;;;;;4953078;29;19937;-86
2022/05/10 03:36:03;;;;;;;;;;;16.40;92.80;;;;;;4957033;28;19930;-86
2022/05/10 03:38:31;;;;;;;;;;;17.20;92.70;;;;;;4940460;28;19950;-86
2022/05/10 03:40:58;;;;;;;;;;;16.70;92.20;;;;;;4974959;28;19937;-85
2022/05/10 03:43:27;;;;;;;;;;;16.70;92.00;;;;;;4975535;28;19926;-86
2022/05/10 03:45:55;;;;;;;;;;;16.70;92.00;;;;;;4962150;28;19926;-86
2022/05/10 03:48:22;;;;;;;;;;;16.70;91.80;;;;;;4937136;28;19930;-85
2022/05/10 03:50:50;;;;;;;;;;;16.70;91.50;;;;;;4590552;29;10000030;-86
2022/05/10 03:53:17;;;;;;;;;;;16.60;91.30;;;;;;4935761;28;19926;-86
2022/05/10 03:55:45;;;;;;;;;;;16.60;91.30;;;;;;4982247;28;20496;-85
2022/05/10 03:58:13;;;;;;;;;;;16.20;91.30;;;;;;4956884;28;19926;-86
2022/05/10 04:00:42;;;;;;;;;;;16.50;91.40;;;;;;4937840;28;19926;-86
2022/05/10 04:03:09;;;;;;;;;;;16.50;91.40;;;;;;4953129;28;19930;-86
2022/05/10 04:05:37;;;;;;;;;;;16.50;91.50;;;;;;4966886;28;19941;-86
2022/05/10 04:08:04;;;;;;;;;;;16.40;91.60;;;;;;4951770;29;19931;-86
2022/05/10 04:10:32;;;;;;;;;;;16.40;91.60;;;;;;4934854;29;20088;-85
2022/05/10 04:12:59;;;;;;;;;;;16.30;91.80;;;;;;4943705;29;19938;-85
2022/05/10 04:15:26;;;;;;;;;;;16.30;91.80;;;;;;4951921;28;19965;-86
2022/05/10 04:17:54;;;;;;;;;;;16.30;92.00;;;;;;4918683;28;19930;-86
2022/05/10 04:20:22;;;;;;;;;;;16.20;92.00;;;;;;4915573;29;19957;-86
2022/05/10 04:22:49;;;;;;;;;;;16.20;92.00;;;;;;4940159;29;19934;-87
2022/05/10 04:25:18;;;;;;;;;;;15.30;91.90;;;;;;4955164;29;19930;-87
2022/05/10 04:27:47;;;;;;;;;;;16.10;92.10;;;;;;4915303;29;19934;-85
2022/05/10 04:30:14;;;;;;;;;;;15.90;92.10;;;;;;4934508;29;19930;-87
2022/05/10 04:32:42;;;;;;;;;;;16.10;92.20;;;;;;4918606;29;19931;-86
2022/05/10 04:35:10;;;;;;;;;;;15.90;92.20;;;;;;4933530;29;19930;-87
2022/05/10 04:37:38;;;;;;;;;;;16.00;92.30;;;;;;4934204;29;19926;-85
2022/05/10 04:42:52;;;;;;;;;;;15.90;92.20;;;;;;4931842;29;19943;-87
2022/05/10 04:45:19;;;;;;;;;;;15.90;92.40;;;;;;4934503;28;19926;-87
2022/05/10 04:47:47;;;;;;;;;;;15.90;92.30;;;;;;4950506;29;19934;-87
2022/05/10 04:50:14;;;;;;;;;;;15.90;92.30;;;;;;4948689;29;19930;-87
2022/05/10 04:52:42;;;;;;;;;;;15.90;92.30;;;;;;4931167;29;19926;-87
2022/05/10 04:55:10;;;;;;;;;;;15.80;92.40;;;;;;4949022;28;19937;-87
2022/05/10 04:57:38;;;;;;;;;;;15.80;92.40;;;;;;4919004;29;19927;-87
2022/05/10 05:00:11;;;;;;;;;;;15.80;92.40;;;;;;4910855;29;19930;-86
2022/05/10 05:02:38;;;;;;;;;;;15.80;92.60;;;;;;4925882;29;19935;-88
2022/05/10 05:05:07;;;;;;;;;;;15.80;92.60;;;;;;4930556;29;19931;-86
2022/05/10 05:07:35;;;;;;;;;;;16.20;92.80;;;;;;4908965;29;20103;-88
2022/05/10 05:10:03;;;;;;;;;;;15.70;92.70;;;;;;4897747;29;19927;-87
2022/05/10 05:12:32;;;;;;;;;;;15.70;92.70;;;;;;4936456;29;19934;-86
2022/05/10 05:15:01;;;;;;;;;;;15.70;92.80;;;;;;4919096;29;19934;-87
2022/05/10 05:17:32;;;;;;;;;;;15.70;92.70;;;;;;4925933;29;20527;-89
2022/05/10 05:20:00;;;;;;;;;;;15.70;92.80;;;;;;4943072;29;19927;-86
2022/05/10 05:22:28;;;;;;;;;;;15.70;92.90;;;;;;4909665;29;19926;-86
2022/05/10 05:24:56;;;;;;;;;;;15.60;92.70;;;;;;4911991;29;19927;-86
2022/05/10 05:27:24;;;;;;;;;;;15.60;92.70;;;;;;4939784;29;19931;-86
2022/05/10 05:29:52;;;;;;;;;;;15.60;92.70;;;;;;4956571;28;19933;-86
2022/05/10 05:32:31;;;;;;;;;;;15.70;92.60;;;;;;4938128;29;20329;-86
2022/05/10 05:34:58;;;;;;;;;;;15.60;92.60;;;;;;4936750;29;19930;-87
2022/05/10 05:37:32;;;;;;;;;;;15.60;92.70;;;;;;4934625;29;20521;-86
2022/05/10 05:40:11;;;;;;;;;;;15.60;92.80;;;;;;4900850;29;19930;-87
2022/05/10 05:42:46;;;;;;;;;;;15.60;92.80;;;;;;4929201;28;19933;-87
2022/05/10 05:45:14;;;;;;;;;;;15.60;93.00;;;;;;4949308;28;19937;-87
2022/05/10 05:47:42;;;;;;;;;;;15.60;93.00;;;;;;4932677;29;19938;-86
2022/05/10 05:50:11;;;;;;;;;;;15.60;93.00;;;;;;4933299;29;20374;-88
2022/05/10 05:52:39;;;;;;;;;;;16.50;93.30;;;;;;4913366;29;20417;-87
2022/05/10 05:55:07;;;;;;;;;;;15.60;93.20;;;;;;4915297;29;19931;-86
2022/05/10 05:57:36;;;;;;;;;;;15.60;93.20;;;;;;4918448;29;20378;-86
2022/05/10 06:00:06;;;;;;;;;;;15.30;93.10;;;;;;4948887;29;19931;-87
2022/05/10 06:02:38;;;;;;;;;;;15.60;93.30;;;;;;4917370;29;19934;-87
2022/05/10 06:05:06;;;;;;;;;;;15.60;93.40;;;;;;4913252;29;20821;-87
2022/05/10 06:07:41;;;;;;;;;;;15.70;93.50;;;;;;4928855;29;19927;-87
2022/05/10 06:10:09;;;;;;;;;;;15.50;93.60;;;;;;4925463;29;19934;-86
2022/05/10 06:12:37;;;;;;;;;;;15.70;93.50;;;;;;4909012;28;19927;-87
2022/05/10 06:15:09;;;;;;;;;;;15.70;93.60;;;;;;4939373;28;19933;-87
2022/05/10 06:17:41;;;;;;;;;;;15.70;93.70;;;;;;4936856;29;19942;-85
2022/05/10 06:20:09;;;;;;;;;;;15.80;93.70;;;;;;4943256;28;19926;-87
2022/05/10 06:22:37;;;;;;;;;;;15.90;93.60;;;;;;4949738;28;19933;-85
2022/05/10 06:25:05;;;;;;;;;;;15.90;93.80;;;;;;4920987;29;19933;-86
2022/05/10 06:27:35;;;;;;;;;;;15.90;93.60;;;;;;4932628;28;19941;-87
2022/05/10 06:30:03;;;;;;;;;;;16.00;93.80;;;;;;4966674;28;20043;-88
2022/05/10 06:32:31;;;;;;;;;;;16.00;93.60;;;;;;4930236;29;19937;-88
2022/05/10 06:35:00;;;;;;;;;;;16.00;93.80;;;;;;4922372;28;20636;-87
2022/05/10 06:40:16;;;;;;;;;;;16.10;94.00;;;;;;4949619;28;20300;-88
2022/05/10 06:42:44;;;;;;;;;;;16.10;94.20;;;;;;4950916;28;19964;-88
2022/05/10 06:45:15;;;;;;;;;;;16.10;94.30;;;;;;4944207;28;19930;-89
2022/05/10 06:47:43;;;;;;;;;;;16.10;94.40;;;;;;4930091;28;20479;-87
2022/05/10 06:50:12;;;;;;;;;;;16.10;94.50;;;;;;4938338;28;19930;-89
2022/05/10 06:52:42;;;;;;;;;;;16.10;94.60;;;;;;4930161;29;19926;-90
2022/05/10 06:55:14;;;;;;;;;;;16.20;94.90;;;;;;4933181;28;20585;-90
2022/05/10 06:57:42;;;;;;;;;;;16.10;95.10;;;;;;4966570;28;19926;-91
2022/05/10 07:00:11;;;;;;;;;;;16.90;95.50;;;;;;4969071;28;19941;-90
2022/05/10 07:02:39;;;;;;;;;;;16.10;95.40;;;;;;4952649;28;19926;-90
2022/05/10 07:05:07;;;;;;;;;;;16.10;95.60;;;;;;4954986;28;19930;-89
2022/05/10 07:07:36;;;;;;;;;;;16.00;95.80;;;;;;4954349;28;19927;-88
2022/05/10 07:10:04;;;;;;;;;;;16.00;96.00;;;;;;4940665;28;20283;-89
2022/05/10 07:12:32;;;;;;;;;;;15.90;96.10;;;;;;4948290;28;19927;-88
2022/05/10 07:15:02;;;;;;;;;;;15.90;96.40;;;;;;4967308;28;19930;-89
2022/05/10 07:17:38;;;;;;;;;;;15.90;96.40;;;;;;4958100;28;19926;-87
2022/05/10 07:20:09;;;;;;;;;;;15.80;96.70;;;;;;4956105;28;19933;-86
2022/05/10 07:22:37;;;;;;;;;;;15.80;96.70;;;;;;4978405;28;19930;-89
2022/05/10 07:25:05;;;;;;;;;;;15.80;97.20;;;;;;4968745;28;19930;-89
2022/05/10 07:27:34;;;;;;;;;;;15.80;97.00;;;;;;4952015;28;19934;-89
2022/05/10 07:30:01;;;;;;;;;;;15.80;97.40;;;;;;4951689;28;19926;-88
2022/05/10 07:32:29;;;;;;;;;;;15.90;97.50;;;;;;4951115;28;19930;-87
2022/05/10 07:34:56;;;;;;;;;;;15.90;97.50;;;;;;4965486;28;19937;-90
2022/05/10 07:37:24;;;;;;;;;;;15.80;97.80;;;;;;4934476;28;19945;-89
2022/05/10 07:39:52;;;;;;;;;;;15.90;98.10;;;;;;4949838;28;19933;-90
2022/05/10 07:42:22;;;;;;;;;;;15.90;98.00;;;;;;4936268;28;19942;-89
2022/05/10 07:44:54;;;;;;;;;;;15.80;98.30;;;;;;4959875;28;20533;-91
2022/05/10 07:47:24;;;;;;;;;;;15.80;98.30;;;;;;4938560;28;20514;-90
2022/05/10 07:49:51;;;;;;;;;;;15.90;98.60;;;;;;4942828;28;20301;-90
2022/05/10 07:52:20;;;;;;;;;;;15.90;98.80;;;;;;4940151;28;19963;-91
2022/05/10 07:54:48;;;;;;;;;;;15.90;98.70;;;;;;4931700;28;20621;-90
2022/05/10 07:57:19;;;;;;;;;;;15.60;98.70;;;;;;4960737;28;19925;-90
2022/05/10 07:59:49;;;;;;;;;;;15.80;98.60;;;;;;4944300;28;19930;-92
2022/05/10 08:02:19;;;;;;;;;;;16.20;98.80;;;;;;4966923;28;19949;-88
2022/05/10 08:04:50;;;;;;;;;;;15.80;98.80;;;;;;4970007;28;19934;-91
2022/05/10 08:07:20;;;;;;;;;;;15.80;98.90;;;;;;4954882;28;19934;-90
2022/05/10 08:09:48;;;;;;;;;;;15.90;98.90;;;;;;4939045;29;19927;-89
2022/05/10 08:12:19;;;;;;;;;;;15.80;98.90;;;;;;4933067;29;19934;-89
2022/05/10 08:14:47;;;;;;;;;;;15.90;99.20;;;;;;4963510;29;19927;-90
2022/05/10 08:17:15;;;;;;;;;;;15.90;98.90;;;;;;4921241;29;19934;-87
2022/05/10 08:19:50;;;;;;;;;;;15.90;99.20;;;;;;4932313;29;20382;-90
2022/05/10 08:22:18;;;;;;;;;;;16.20;99.20;;;;;;4933613;29;19940;-92
2022/05/10 08:24:54;;;;;;;;;;;16.00;99.20;;;;;;4929925;29;19931;-89
2022/05/10 08:27:21;;;;;;;;;;;16.10;99.20;;;;;;4925453;29;19927;-91
2022/05/10 08:29:51;;;;;;;;;;;16.20;99.10;;;;;;4952593;29;20390;-90
2022/05/10 08:32:20;;;;;;;;;;;16.30;98.80;;;;;;4925350;29;19938;-91
2022/05/10 08:34:51;;;;;;;;;;;16.40;99.10;;;;;;4920869;29;19931;-90
2022/05/10 08:37:20;;;;;;;;;;;16.40;98.80;;;;;;4891154;29;19926;-90
2022/05/10 08:39:49;;;;;;;;;;;16.40;98.70;;;;;;4900255;29;19927;-90
2022/05/10 08:42:28;;;;;;;;;;;16.90;99.00;;;;;;4908340;29;19926;-90
2022/05/10 08:45:04;;;;;;;;;;;16.40;98.70;;;;;;4950789;28;19933;-88
2022/05/10 08:47:36;;;;;;;;;;;16.40;98.70;;;;;;4953242;29;20390;-90
2022/05/10 08:50:06;;;;;;;;;;;16.40;98.90;;;;;;4916152;29;19931;-92
2022/05/10 08:52:55;;;;;;;;;;;16.40;98.90;;;;;;4948926;29;19937;-90
2022/05/10 08:55:28;;;;;;;;;;;16.50;98.80;;;;;;4932888;29;19931;-92
2022/05/10 08:58:14;;;;;;;;;;;16.60;98.80;;;;;;4922472;29;19934;-91
2022/05/10 09:01:02;;;;;;;;;;;16.60;98.90;;;;;;4919899;29;19927;-92
2022/05/10 09:03:38;;;;;;;;;;;16.60;98.90;;;;;;4937402;29;19931;-90
2022/05/10 09:06:20;;;;;;;;;;;16.70;98.70;;;;;;4919252;29;20489;-89
2022/05/10 09:08:48;;;;;;;;;;;16.90;98.80;;;;;;4934080;29;19930;-91
2022/05/10 09:11:22;;;;;;;;;;;16.70;99.00;;;;;;4916932;29;19934;-90
2022/05/10 09:13:50;;;;;;;;;;;16.80;98.80;;;;;;4968712;28;20297;-89
2022/05/10 09:16:19;;;;;;;;;;;16.90;98.80;;;;;;4951007;28;19930;-90
2022/05/10 09:18:53;;;;;;;;;;;16.90;98.70;;;;;;4947349;28;19938;-92
2022/05/10 09:21:33;;;;;;;;;;;15.90;98.50;;;;;;4954834;28;19937;-91
2022/05/10 09:24:15;;;;;;;;;;;16.90;98.60;;;;;;4954588;28;19930;-91
2022/05/10 09:26:44;;;;;;;;;;;16.80;98.70;;;;;;4955206;28;20385;-91
2022/05/10 09:29:15;;;;;;;;;;;16.80;98.80;;;;;;4957132;28;19930;-91
2022/05/10 09:34:46;;;;;;;;;;;16.70;99.20;;;;;;4952439;28;20312;-91
2022/05/10 09:37:18;;;;;;;;;;;16.70;99.10;;;;;;4938735;28;19926;-89
2022/05/10 09:40:01;;;;;;;;;;;17.80;99.60;;;;;;4929475;28;19934;-89
2022/05/10 09:42:31;;;;;;;;;;;16.80;99.20;;;;;;4966307;28;19940;-90
2022/05/10 09:45:01;;;;;;;;;;;17.80;99.90;;;;;;4965256;28;19934;-90
2022/05/10 09:47:29;;;;;;;;;;;16.80;99.30;;;;;;4947154;28;19942;-89
2022/05/10 09:50:10;;;;;;;;;;;16.90;99.20;;;;;;4932503;28;19927;-91
2022/05/10 09:52:38;;;;;;;;;;;17.00;99.20;;;;;;4970784;28;20293;-89
2022/05/10 09:55:07;;;;;;;;;;;17.00;99.30;;;;;;4935727;28;19934;-89
2022/05/10 09:57:38;;;;;;;;;;;17.00;99.50;;;;;;4967877;28;19953;-90
2022/05/10 10:00:33;;;;;;;;;;;17.00;99.80;;;;;;4967663;28;20356;-87
2022/05/10 10:03:09;;;;;;;;;;;17.10;99.70;;;;;;4948343;28;19930;-87
2022/05/10 10:05:37;;;;;;;;;;;17.10;99.70;;;;;;4968938;28;19930;-87
2022/05/10 10:08:04;;;;;;;;;;;17.10;99.80;;;;;;4938311;29;19941;-89
2022/05/10 10:10:35;;;;;;;;;;;17.20;99.70;;;;;;4936899;29;19938;-86
2022/05/10 10:13:26;;;;;;;;;;;17.30;99.50;;;;;;4949578;28;19938;-88
2022/05/10 10:15:55;;;;;;;;;;;17.30;99.10;;;;;;4940058;28;20262;-86
2022/05/10 10:18:42;;;;;;;;;;;17.30;99.40;;;;;;4959840;28;19926;-88
2022/05/10 10:21:15;;;;;;;;;;;17.50;99.40;;;;;;4910581;28;19927;-88
2022/05/10 10:23:57;;;;;;;;;;;17.50;99.20;;;;;;4962734;28;20577;-86
2022/05/10 10:26:31;;;;;;;;;;;17.60;99.10;;;;;;4961691;28;19933;-87
2022/05/10 10:29:27;;;;;;;;;;;17.70;98.90;;;;;;4960952;28;19926;-91
2022/05/10 10:32:00;;;;;;;;;;;17.80;99.00;;;;;;4929423;28;19930;-89
2022/05/10 10:34:32;;;;;;;;;;;18.00;98.80;;;;;;4936860;29;20290;-89
2022/05/10 10:37:04;;;;;;;;;;;18.00;98.40;;;;;;4943074;29;20401;-87
2022/05/10 10:39:49;;;;;;;;;;;18.10;98.60;;;;;;4924598;29;20412;-86
2022/05/10 10:42:48;;;;;;;;;;;17.70;98.30;;;;;;4954281;28;20404;-88
2022/05/10 10:45:23;;;;;;;;;;;18.00;98.10;;;;;;4976638;28;19930;-88
2022/05/10 10:47:54;;;;;;;;;;;17.90;98.20;;;;;;4968962;28;19938;-88
2022/05/10 10:50:45;;;;;;;;;;;17.80;98.60;;;;;;4940425;29;19934;-86
2022/05/10 10:53:13;;;;;;;;;;;17.60;98.60;;;;;;4954176;28;19949;-88
2022/05/10 10:55:42;;;;;;;;;;;17.70;98.80;;;;;;4984286;28;19932;-87
2022/05/10 10:58:10;;;;;;;;;;;17.70;98.60;;;;;;4970712;28;19934;-87
2022/05/10 11:00:42;;;;;;;;;;;17.70;98.80;;;;;;4952888;28;19930;-87
2022/05/10 11:03:31;;;;;;;;;;;17.70;98.90;;;;;;4973326;28;19926;-88
2022/05/10 11:06:13;;;;;;;;;;;17.80;98.80;;;;;;4961751;28;20424;-86
2022/05/10 11:09:00;;;;;;;;;;;18.00;98.80;;;;;;4954832;28;20390;-89
2022/05/10 11:11:47;;;;;;;;;;;17.60;98.80;;;;;;4921476;29;20362;-87
2022/05/10 11:14:22;;;;;;;;;;;17.80;98.90;;;;;;4938099;29;19937;-86
2022/05/10 11:16:54;;;;;;;;;;;17.60;99.30;;;;;;4955153;28;19933;-86
2022/05/10 11:19:27;;;;;;;;;;;17.70;99.10;;;;;;4971329;28;20270;-88
2022/05/10 11:22:12;;;;;;;;;;;17.70;99.10;;;;;;4938032;28;19958;-88
2022/05/10 11:24:49;;;;;;;;;;;17.70;99.20;;;;;;4945366;28;19926;-90
2022/05/10 11:27:39;;;;;;;;;;;17.90;99.10;;;;;;4944722;28;19942;-87
2022/05/10 11:30:06;;;;;;;;;;;17.80;99.20;;;;;;4960120;28;19946;-88
2022/05/10 11:32:54;;;;;;;;;;;17.80;99.30;;;;;;4934910;29;19938;-90
2022/05/10 11:35:25;;;;;;;;;;;17.70;99.20;;;;;;4953326;28;19930;-90
2022/05/10 11:37:52;;;;;;;;;;;17.60;99.40;;;;;;4953867;28;19946;-89
2022/05/10 11:40:28;;;;;;;;;;;16.40;99.40;;;;;;4920533;29;19937;-86
2022/05/10 11:43:07;;;;;;;;;;;17.30;99.70;;;;;;4916643;29;19926;-88
2022/05/10 11:45:35;;;;;;;;;;;17.30;99.80;;;;;;4967568;28;19930;-87
2022/05/10 11:48:05;;;;;;;;;;;17.20;99.90;;;;;;4968735;28;19933;-87
2022/05/10 11:50:34;;;;;;;;;;;17.20;99.90;;;;;;4944399;28;19940;-86
2022/05/10 11:53:06;;;;;;;;;;;17.10;99.90;;;;;;4951075;28;19939;-87
2022/05/10 11:55:37;;;;;;;;;;;17.00;99.90;;;;;;4937305;28;19926;-87
2022/05/10 11:58:08;;;;;;;;;;;17.00;99.90;;;;;;4955051;28;19934;-87
2022/05/10 12:00:35;;;;;;;;;;;17.00;99.90;;;;;;4953886;28;20686;-87
2022/05/10 12:03:04;;;;;;;;;;;16.90;99.90;;;;;;4947267;29;19930;-88
2022/05/10 12:05:37;;;;;;;;;;;16.80;99.90;;;;;;4919020;29;19927;-87
2022/05/10 12:08:25;;;;;;;;;;;16.80;99.90;;;;;;4949842;28;19931;-90
2022/05/10 12:10:57;;;;;;;;;;;16.30;99.90;;;;;;4914223;28;19941;-90
2022/05/10 12:22:11;;;;;;;;;;;16.70;99.90;;;;;;4973546;28;19930;-92
2022/05/10 12:24:49;;;;;;;;;;;17.00;99.90;;;;;;4986392;28;19934;-91
2022/05/10 12:27:18;;;;;;;;;;;16.70;99.90;;;;;;4967814;28;19926;-92
2022/05/10 12:29:45;;;;;;;;;;;16.80;99.90;;;;;;4967244;28;19931;-92
2022/05/10 12:32:32;;;;;;;;;;;16.90;99.90;;;;;;4982452;28;19926;-91
2022/05/10 12:35:01;;;;;;;;;;;16.70;99.90;;;;;;4980086;28;19926;-92
2022/05/10 12:37:30;;;;;;;;;;;17.30;99.90;;;;;;4964738;28;19933;-89
2022/05/10 12:39:58;;;;;;;;;;;17.40;99.90;;;;;;4965311;28;19941;-91
2022/05/10 12:42:38;;;;;;;;;;;17.50;99.90;;;;;;4960381;28;19926;-92
2022/05/10 12:45:26;;;;;;;;;;;17.60;99.90;;;;;;4942788;28;19930;-91
2022/05/10 12:48:10;;;;;;;;;;;17.70;99.90;;;;;;4969125;28;19926;-90
2022/05/10 12:50:53;;;;;;;;;;;17.00;99.90;;;;;;4947738;29;19926;-89
2022/05/10 12:53:28;;;;;;;;;;;17.90;99.90;;;;;;4957748;28;19938;-90
2022/05/10 12:56:01;;;;;;;;;;;18.10;99.90;;;;;;4965058;28;19942;-90
2022/05/10 12:58:34;;;;;;;;;;;18.10;99.90;;;;;;4950641;28;19926;-88
2022/05/10 13:01:04;;;;;;;;;;;18.00;99.90;;;;;;4952107;29;20397;-91
2022/05/10 13:03:37;;;;;;;;;;;18.00;99.90;;;;;;4935755;29;20282;-91
2022/05/10 13:06:19;;;;;;;;;;;18.10;99.90;;;;;;4945107;28;20459;-92
2022/05/10 13:09:01;;;;;;;;;;;18.20;99.90;;;;;;4967197;28;19930;-88
2022/05/10 13:11:51;;;;;;;;;;;18.30;99.90;;;;;;4966361;28;20405;-90
2022/05/10 13:14:19;;;;;;;;;;;18.40;99.50;;;;;;4949233;28;19926;-91
2022/05/10 13:16:51;;;;;;;;;;;18.60;99.40;;;;;;4970065;28;19926;-88
2022/05/10 13:19:21;;;;;;;;;;;18.80;99.00;;;;;;4938436;28;20288;-89
2022/05/10 13:21:55;;;;;;;;;;;19.00;98.90;;;;;;4952112;28;19933;-87
2022/05/10 13:24:24;;;;;;;;;;;19.40;98.80;;;;;;4934171;29;19933;-89
2022/05/10 13:26:58;;;;;;;;;;;19.90;98.40;;;;;;4962495;28;19926;-90
2022/05/10 13:29:37;;;;;;;;;;;20.20;97.00;;;;;;4972358;28;19934;-90
2022/05/10 13:32:11;;;;;;;;;;;20.50;97.00;;;;;;4937629;29;19930;-88
2022/05/10 13:34:48;;;;;;;;;;;20.50;96.50;;;;;;4949387;28;19930;-90
2022/05/10 13:37:37;;;;;;;;;;;20.50;95.90;;;;;;4956351;28;19930;-90
2022/05/10 13:40:08;;;;;;;;;;;20.40;96.40;;;;;;4939362;28;19937;-90
2022/05/10 13:42:41;;;;;;;;;;;20.20;96.00;;;;;;4944024;28;19927;-91
2022/05/10 13:45:11;;;;;;;;;;;19.90;95.90;;;;;;4953644;28;19926;-89
2022/05/10 13:47:39;;;;;;;;;;;19.70;95.70;;;;;;4938209;29;19931;-90
2022/05/10 13:50:20;;;;;;;;;;;19.40;96.00;;;;;;4946465;28;20365;-87
2022/05/10 13:52:49;;;;;;;;;;;19.20;95.90;;;;;;4977727;28;19930;-90
2022/05/10 13:55:20;;;;;;;;;;;19.10;96.40;;;;;;4971884;23;19934;-81
2022/05/10 13:58:21;;;;;;;;;;;19.30;96.40;;;;;;4945235;28;19926;-81
2022/05/10 14:00:50;;;;;;;;;;;19.60;96.30;;;;;;4963599;28;19938;-82
2022/05/10 14:03:20;;;;;;;;;;;20.00;95.20;;;;;;4967074;28;19953;-81
2022/05/10 14:05:49;;;;;;;;;;;20.40;94.50;;;;;;4964252;28;19926;-81
2022/05/10 14:08:20;;;;;;;;;;;20.50;94.10;;;;;;4986522;28;19926;-81
2022/05/10 14:11:04;;;;;;;;;;;20.70;93.10;;;;;;4952842;29;19927;-81
2022/05/10 14:13:34;;;;;;;;;;;20.90;92.30;;;;;;4945930;29;19950;-83
2022/05/10 14:16:03;;;;;;;;;;;21.30;92.00;;;;;;4944981;29;19934;-80
2022/05/10 14:18:39;;;;;;;;;;;21.70;91.60;;;;;;4928877;29;19938;-80
2022/05/10 14:21:21;;;;;;;;;;;22.10;90.60;;;;;;4932394;29;19942;-81
2022/05/10 14:23:50;;;;;;;;;;;22.40;90.10;;;;;;4951265;29;20405;-81
2022/05/10 14:26:30;;;;;;;;;;;22.40;89.10;;;;;;4908818;29;19934;-81
2022/05/10 14:29:07;;;;;;;;;;;22.30;88.00;;;;;;4951756;29;19935;-81
2022/05/10 14:31:36;;;;;;;;;;;22.00;87.30;;;;;;4956294;29;19931;-81
2022/05/10 14:34:16;;;;;;;;;;;22.20;88.10;;;;;;4930834;29;19927;-81
2022/05/10 14:36:51;;;;;;;;;;;22.60;87.90;;;;;;4942721;29;19938;-80
2022/05/10 14:39:27;;;;;;;;;;;23.00;86.90;;;;;;4962543;29;19934;-82
2022/05/10 14:41:57;;;;;;;;;;;23.00;85.10;;;;;;4921709;29;19941;-81
2022/05/10 14:44:39;;;;;;;;;;;23.00;85.00;;;;;;4925072;29;21811;-80
2022/05/10 14:47:17;;;;;;;;;;;22.90;84.80;;;;;;4941699;29;19927;-81
2022/05/10 14:49:50;;;;;;;;;;;22.40;84.30;;;;;;4943584;29;19950;-80
2022/05/10 14:55:40;;;;;;;;;;;23.60;83.40;;;;;;4950563;28;19958;-81
2022/05/10 14:58:10;;;;;;;;;;;23.70;82.20;;;;;;4931442;29;19934;-80
2022/05/10 15:00:45;;;;;;;;;;;23.60;81.80;;;;;;4942397;29;20320;-81
2022/05/10 15:03:18;;;;;;;;;;;23.60;81.50;;;;;;4944609;29;19935;-81
2022/05/10 15:05:56;;;;;;;;;;;23.90;80.50;;;;;;4933355;29;19931;-85
2022/05/10 15:08:27;;;;;;;;;;;24.10;79.10;;;;;;4943684;29;20524;-82
2022/05/10 15:11:07;;;;;;;;;;;24.10;78.60;;;;;;4927887;29;19942;-81